sensor_id;sensor_type;location;lat;lon;timestamp;temperature;humidity
43862;DHT22;29510;52.140;5.034;2023-07-13T00:08:37;18.10;1.00
43862;DHT22;29510;52.140;5.034;2023-07-13T00:18:58;18.00;1.00
43862;DHT22;29510;52.140;5.034;2023-07-13T00:29:21;17.80;1.00
43862;DHT22;29510;52.140;5.034;2023-07-13T00:39:43;17.90;1.00
43862;DHT22;29510;52.140;5.034;2023-07-13T00:50:09;17.60;1.00
43862;DHT22;29510;52.140;5.034;2023-07-13T01:00:31;17.60;1.00
43862;DHT22;29510;52.140;5.034;2023-07-13T01:10:54;17.60;1.00
43862;DHT22;29510;52.140;5.034;2023-07-13T01:21:16;17.50;1.00
43862;DHT22;29510;52.140;5.034;2023-07-13T01:31:38;17.60;1.00
43862;DHT22;29510;52.140;5.034;2023-07-13T01:42:00;17.50;1.00
43862;DHT22;29510;52.140;5.034;2023-07-13T01:52:22;17.40;1.00
43862;DHT22;29510;52.140;5.034;2023-07-13T02:02:43;17.40;1.00
43862;DHT22;29510;52.140;5.034;2023-07-13T02:13:06;17.40;1.00
43862;DHT22;29510;52.140;5.034;2023-07-13T02:23:28;17.30;1.00
43862;DHT22;29510;52.140;5.034;2023-07-13T02:33:49;17.20;1.00
43862;DHT22;29510;52.140;5.034;2023-07-13T02:44:13;17.10;1.00
43862;DHT22;29510;52.140;5.034;2023-07-13T02:54:34;16.90;1.00
43862;DHT22;29510;52.140;5.034;2023-07-13T03:04:56;16.90;1.00
43862;DHT22;29510;52.140;5.034;2023-07-13T03:15:17;16.70;1.00
43862;DHT22;29510;52.140;5.034;2023-07-13T03:25:39;16.80;1.00
43862;DHT22;29510;52.140;5.034;2023-07-13T03:36:01;16.60;1.60
43862;DHT22;29510;52.140;5.034;2023-07-13T03:46:23;16.50;1.00
43862;DHT22;29510;52.140;5.034;2023-07-13T03:56:44;16.50;1.00
43862;DHT22;29510;52.140;5.034;2023-07-13T04:07:06;16.60;1.00
43862;DHT22;29510;52.140;5.034;2023-07-13T04:17:42;16.40;3.40
43862;DHT22;29510;52.140;5.034;2023-07-13T04:28:04;16.50;12.50
43862;DHT22;29510;52.140;5.034;2023-07-13T04:38:30;16.50;20.60
43862;DHT22;29510;52.140;5.034;2023-07-13T04:48:51;16.50;24.70
43862;DHT22;29510;52.140;5.034;2023-07-13T04:59:14;16.60;37.20
43862;DHT22;29510;52.140;5.034;2023-07-13T05:09:36;16.60;51.90
43862;DHT22;29510;52.140;5.034;2023-07-13T05:19:57;16.90;35.40
43862;DHT22;29510;52.140;5.034;2023-07-13T05:30:18;17.00;48.60
43862;DHT22;29510;52.140;5.034;2023-07-13T05:40:43;17.20;56.20
43862;DHT22;29510;52.140;5.034;2023-07-13T05:51:04;17.50;27.00
43862;DHT22;29510;52.140;5.034;2023-07-13T06:01:25;17.60;25.00
43862;DHT22;29510;52.140;5.034;2023-07-13T06:11:47;17.70;23.60
43862;DHT22;29510;52.140;5.034;2023-07-13T06:22:08;18.00;24.10
43862;DHT22;29510;52.140;5.034;2023-07-13T06:32:29;18.30;1.00
43862;DHT22;29510;52.140;5.034;2023-07-13T06:42:51;18.60;1.00
43862;DHT22;29510;52.140;5.034;2023-07-13T06:53:12;18.80;3.40
43862;DHT22;29510;52.140;5.034;2023-07-13T07:03:34;18.20;27.40
43862;DHT22;29510;52.140;5.034;2023-07-13T07:13:55;17.30;1.00
43862;DHT22;29510;52.140;5.034;2023-07-13T07:24:17;16.10;55.70
43862;DHT22;29510;52.140;5.034;2023-07-13T07:34:38;15.90;99.90
43862;DHT22;29510;52.140;5.034;2023-07-13T07:44:59;16.40;99.90
43862;DHT22;29510;52.140;5.034;2023-07-13T07:55:22;16.90;99.90
43862;DHT22;29510;52.140;5.034;2023-07-13T08:05:44;17.20;99.90
43862;DHT22;29510;52.140;5.034;2023-07-13T08:16:06;17.30;99.90
43862;DHT22;29510;52.140;5.034;2023-07-13T08:26:27;17.60;99.90
43862;DHT22;29510;52.140;5.034;2023-07-13T08:36:48;17.10;99.90
43862;DHT22;29510;52.140;5.034;2023-07-13T08:47:11;16.50;99.90
43862;DHT22;29510;52.140;5.034;2023-07-13T08:57:34;15.80;99.90
43862;DHT22;29510;52.140;5.034;2023-07-13T09:18:39;16.10;99.90
43862;DHT22;29510;52.140;5.034;2023-07-13T09:29:23;16.50;99.90
43862;DHT22;29510;52.140;5.034;2023-07-13T09:39:49;16.60;99.90
43862;DHT22;29510;52.140;5.034;2023-07-13T09:50:16;17.40;99.90
43862;DHT22;29510;52.140;5.034;2023-07-13T10:00:38;17.50;99.90
43862;DHT22;29510;52.140;5.034;2023-07-13T10:21:39;17.50;99.90
43862;DHT22;29510;52.140;5.034;2023-07-13T10:32:09;18.30;99.90
43862;DHT22;29510;52.140;5.034;2023-07-13T10:42:37;19.20;91.50
43862;DHT22;29510;52.140;5.034;2023-07-13T10:53:15;19.00;68.10
43862;DHT22;29510;52.140;5.034;2023-07-13T11:03:54;19.50;17.40
43862;DHT22;29510;52.140;5.034;2023-07-13T11:25:25;18.10;12.40
43862;DHT22;29510;52.140;5.034;2023-07-13T11:46:23;18.30;99.90
43862;DHT22;29510;52.140;5.034;2023-07-13T11:56:45;18.40;1.00
43862;DHT22;29510;52.140;5.034;2023-07-13T12:07:15;18.30;1.00
43862;DHT22;29510;52.140;5.034;2023-07-13T12:17:36;18.30;1.00
43862;DHT22;29510;52.140;5.034;2023-07-13T12:27:58;18.80;1.00
43862;DHT22;29510;52.140;5.034;2023-07-13T12:38:19;19.70;1.00
43862;DHT22;29510;52.140;5.034;2023-07-13T12:48:43;20.60;1.00
43862;DHT22;29510;52.140;5.034;2023-07-13T12:59:16;20.40;1.00
43862;DHT22;29510;52.140;5.034;2023-07-13T13:09:38;20.40;1.00
43862;DHT22;29510;52.140;5.034;2023-07-13T13:19:59;21.10;1.00
43862;DHT22;29510;52.140;5.034;2023-07-13T13:30:21;21.40;1.00
43862;DHT22;29510;52.140;5.034;2023-07-13T13:40:44;21.80;1.00
43862;DHT22;29510;52.140;5.034;2023-07-13T13:51:15;22.10;1.00
43862;DHT22;29510;52.140;5.034;2023-07-13T14:01:37;22.20;1.00
43862;DHT22;29510;52.140;5.034;2023-07-13T14:11:59;22.00;1.00
43862;DHT22;29510;52.140;5.034;2023-07-13T14:22:20;22.00;1.00
43862;DHT22;29510;52.140;5.034;2023-07-13T14:32:43;21.90;1.00
43862;DHT22;29510;52.140;5.034;2023-07-13T14:43:09;22.10;1.00
43862;DHT22;29510;52.140;5.034;2023-07-13T14:53:31;22.10;1.00
43862;DHT22;29510;52.140;5.034;2023-07-13T15:03:53;22.20;1.00
43862;DHT22;29510;52.140;5.034;2023-07-13T15:14:14;22.10;1.00
43862;DHT22;29510;52.140;5.034;2023-07-13T15:24:36;22.30;1.00
43862;DHT22;29510;52.140;5.034;2023-07-13T15:34:58;22.20;1.00
43862;DHT22;29510;52.140;5.034;2023-07-13T15:45:21;22.20;1.00
43862;DHT22;29510;52.140;5.034;2023-07-13T15:55:43;22.10;1.00
43862;DHT22;29510;52.140;5.034;2023-07-13T16:06:22;22.10;1.00
43862;DHT22;29510;52.140;5.034;2023-07-13T16:16:44;21.70;1.00
43862;DHT22;29510;52.140;5.034;2023-07-13T16:27:08;21.60;1.00
43862;DHT22;29510;52.140;5.034;2023-07-13T16:37:30;21.60;1.00
43862;DHT22;29510;52.140;5.034;2023-07-13T16:47:52;21.60;1.00
43862;DHT22;29510;52.140;5.034;2023-07-13T16:58:14;21.50;1.00
43862;DHT22;29510;52.140;5.034;2023-07-13T17:08:36;21.40;1.00
43862;DHT22;29510;52.140;5.034;2023-07-13T17:18:57;21.40;1.00
43862;DHT22;29510;52.140;5.034;2023-07-13T17:29:20;21.10;1.00
43862;DHT22;29510;52.140;5.034;2023-07-13T17:39:42;21.10;1.00
43862;DHT22;29510;52.140;5.034;2023-07-13T17:50:13;20.90;1.00
43862;DHT22;29510;52.140;5.034;2023-07-13T18:00:37;20.70;1.00
43862;DHT22;29510;52.140;5.034;2023-07-13T18:11:02;20.70;1.00
43862;DHT22;29510;52.140;5.034;2023-07-13T18:21:24;20.70;1.00
43862;DHT22;29510;52.140;5.034;2023-07-13T18:31:47;20.50;1.00
43862;DHT22;29510;52.140;5.034;2023-07-13T18:42:09;20.30;1.00
43862;DHT22;29510;52.140;5.034;2023-07-13T18:52:31;20.00;1.00
43862;DHT22;29510;52.140;5.034;2023-07-13T19:02:52;19.80;1.00
43862;DHT22;29510;52.140;5.034;2023-07-13T19:13:23;19.60;1.00
43862;DHT22;29510;52.140;5.034;2023-07-13T19:23:46;19.50;1.00
43862;DHT22;29510;52.140;5.034;2023-07-13T19:44:32;19.20;1.00
43862;DHT22;29510;52.140;5.034;2023-07-13T19:54:57;19.10;1.00
43862;DHT22;29510;52.140;5.034;2023-07-13T20:05:21;18.90;1.00
43862;DHT22;29510;52.140;5.034;2023-07-13T20:15:42;18.60;1.00
43862;DHT22;29510;52.140;5.034;2023-07-13T20:26:04;18.40;1.00
43862;DHT22;29510;52.140;5.034;2023-07-13T20:36:26;18.20;1.00
43862;DHT22;29510;52.140;5.034;2023-07-13T20:46:47;18.10;1.00
43862;DHT22;29510;52.140;5.034;2023-07-13T20:57:09;18.00;1.00
43862;DHT22;29510;52.140;5.034;2023-07-13T21:07:31;18.00;1.00
43862;DHT22;29510;52.140;5.034;2023-07-13T21:17:55;17.90;1.00
43862;DHT22;29510;52.140;5.034;2023-07-13T21:28:17;17.80;1.00
43862;DHT22;29510;52.140;5.034;2023-07-13T21:38:40;17.70;1.00
43862;DHT22;29510;52.140;5.034;2023-07-13T21:49:02;17.60;1.00
43862;DHT22;29510;52.140;5.034;2023-07-13T21:59:26;17.60;1.00
43862;DHT22;29510;52.140;5.034;2023-07-13T22:09:47;17.50;1.00
43862;DHT22;29510;52.140;5.034;2023-07-13T22:20:18;17.40;1.00
43862;DHT22;29510;52.140;5.034;2023-07-13T22:30:39;17.10;1.00
43862;DHT22;29510;52.140;5.034;2023-07-13T22:41:01;16.90;1.00
43862;DHT22;29510;52.140;5.034;2023-07-13T22:51:23;17.00;1.00
43862;DHT22;29510;52.140;5.034;2023-07-13T23:01:46;17.00;1.00
43862;DHT22;29510;52.140;5.034;2023-07-13T23:12:09;17.00;1.00
43862;DHT22;29510;52.140;5.034;2023-07-13T23:22:31;17.00;1.00
43862;DHT22;29510;52.140;5.034;2023-07-13T23:33:09;16.80;1.00
43862;DHT22;29510;52.140;5.034;2023-07-13T23:43:35;16.80;1.00
43862;DHT22;29510;52.140;5.034;2023-07-13T23:53:57;16.90;1.00
